createdAt,value
2023-02-03T00:01:35.285Z,99956.16
2023-02-03T00:04:02.023Z,99941.31
2023-02-03T00:06:28.822Z,99952.28
2023-02-03T00:08:59.459Z,99956.28
2023-02-03T00:11:27.132Z,99956.41
2023-02-03T00:13:53.794Z,99948.19
2023-02-03T00:16:20.525Z,99950.47
2023-02-03T00:18:47.249Z,99936.81
2023-02-03T00:21:17.837Z,99951.47
2023-02-03T00:23:44.584Z,99952.22
2023-02-03T00:26:16.221Z,99954.88
2023-02-03T00:28:43.676Z,99947.56
2023-02-03T00:31:22.686Z,99946.28
2023-02-03T00:33:55.160Z,99955.75
2023-02-03T00:36:23.229Z,99958.50
2023-02-03T00:38:50.357Z,99956.94
2023-02-03T00:41:17.711Z,99955.75
2023-02-03T00:43:44.934Z,99939.19
2023-02-03T00:46:11.788Z,99953.28
2023-02-03T00:48:38.546Z,99947.72
2023-02-03T00:51:06.206Z,99941.72
2023-02-03T00:53:33.106Z,99952.97
2023-02-03T00:55:59.861Z,99952.53
2023-02-03T00:58:26.550Z,99932.78
2023-02-03T01:00:55.951Z,99949.44
2023-02-03T01:03:23.328Z,99947.69
2023-02-03T01:05:50.100Z,99953.94
2023-02-03T01:08:16.814Z,99965.41
2023-02-03T01:10:43.491Z,99956.69
2023-02-03T01:13:10.113Z,99959.53
2023-02-03T01:15:36.852Z,99949.03
2023-02-03T01:18:03.774Z,99949.53
2023-02-03T01:20:30.441Z,99954.13
2023-02-03T01:22:57.581Z,99953.94
2023-02-03T01:25:24.596Z,99950.88
2023-02-03T01:27:51.264Z,99958.88
2023-02-03T01:30:18.306Z,99954.78
2023-02-03T01:32:45.011Z,99941.34
2023-02-03T01:35:11.664Z,99961.06
2023-02-03T01:37:38.377Z,99952.13
2023-02-03T01:40:05.642Z,99959.63
2023-02-03T01:42:34.094Z,99966.81
2023-02-03T01:45:01.140Z,99963.19
2023-02-03T01:47:50.891Z,99959.22
2023-02-03T01:50:23.616Z,99960.28
2023-02-03T01:52:59.446Z,99965.97
2023-02-03T01:55:31.930Z,99969.47
2023-02-03T01:58:04.426Z,99957.59
2023-02-03T02:00:31.281Z,99971.22
2023-02-03T02:03:00.526Z,99974.03
2023-02-03T02:05:35.319Z,99981.81
2023-02-03T02:08:04.091Z,99977.91
2023-02-03T02:10:31.694Z,99973.13
2023-02-03T02:13:01.057Z,99968.66
2023-02-03T02:15:53.982Z,99966.81
2023-02-03T02:18:42.279Z,99970.44
2023-02-03T02:21:30.408Z,99957.63
2023-02-03T02:24:11.979Z,99962.22
2023-02-03T02:26:54.834Z,99948.72
2023-02-03T02:29:47.359Z,99959.50
2023-02-03T02:32:54.759Z,99975.88
2023-02-03T02:35:40.796Z,99965.63
2023-02-03T02:38:19.669Z,99972.00
2023-02-03T02:41:05.070Z,99971.56
2023-02-03T02:43:54.220Z,99968.50
2023-02-03T02:46:43.692Z,99969.09
2023-02-03T02:49:19.616Z,99966.22
2023-02-03T02:51:48.787Z,99975.03
2023-02-03T02:54:22.742Z,99967.09
2023-02-03T02:56:53.549Z,99952.66
2023-02-03T02:59:20.243Z,99963.53
2023-02-03T03:01:47.177Z,99957.91
2023-02-03T03:04:19.847Z,99970.38
2023-02-03T03:06:51.337Z,99968.19
2023-02-03T03:09:36.437Z,99977.34
2023-02-03T03:12:13.308Z,99977.50
2023-02-03T03:14:45.546Z,99982.19
2023-02-03T03:17:17.184Z,99992.09
2023-02-03T03:19:50.616Z,99987.94
2023-02-03T03:22:21.420Z,99985.69
2023-02-03T03:24:53.939Z,99991.84
2023-02-03T03:27:24.370Z,99972.66
2023-02-03T03:29:57.315Z,99991.59
2023-02-03T03:32:24.704Z,99996.78
2023-02-03T03:34:52.337Z,99994.75
2023-02-03T03:37:22.922Z,99994.84
2023-02-03T03:40:01.116Z,100012.97
2023-02-03T03:42:46.376Z,100003.41
2023-02-03T03:45:33.931Z,100004.25
2023-02-03T03:48:15.807Z,100008.91
2023-02-03T03:50:49.337Z,100012.81
2023-02-03T03:53:18.640Z,100016.41
2023-02-03T03:55:50.025Z,100007.56
2023-02-03T03:58:37.831Z,100003.22
2023-02-03T04:01:07.574Z,100014.69
2023-02-03T04:03:41.981Z,100008.59
2023-02-03T04:06:08.839Z,100011.91
2023-02-03T04:08:35.498Z,100019.72
2023-02-03T04:11:02.231Z,99997.63
2023-02-03T04:13:28.917Z,100005.84
2023-02-03T04:15:55.541Z,100012.97
2023-02-03T04:18:22.420Z,100016.44
2023-02-03T04:20:49.073Z,99987.59
2023-02-03T04:23:16.141Z,100001.88
2023-02-03T04:25:42.830Z,100005.81
2023-02-03T04:28:09.682Z,100017.97
2023-02-03T04:30:36.451Z,100013.41
2023-02-03T04:33:03.789Z,100003.13
2023-02-03T04:35:30.683Z,100018.75
2023-02-03T04:37:57.452Z,100027.53
2023-02-03T04:40:24.205Z,100035.63
2023-02-03T04:42:51.232Z,100038.81
2023-02-03T04:45:17.934Z,100055.34
2023-02-03T04:47:44.754Z,100054.41
2023-02-03T04:50:11.447Z,100055.91
2023-02-03T04:52:38.178Z,100056.50
2023-02-03T04:55:05.237Z,100053.53
2023-02-03T04:57:31.985Z,100079.78
2023-02-03T04:59:58.699Z,100073.00
2023-02-03T05:02:25.591Z,100097.19
2023-02-03T05:04:52.512Z,100098.84
2023-02-03T05:07:19.162Z,100108.38
2023-02-03T05:09:45.938Z,100115.09
2023-02-03T05:12:12.558Z,100120.22
2023-02-03T05:14:39.254Z,100125.22
2023-02-03T05:17:06.089Z,100123.41
2023-02-03T05:19:32.802Z,100128.25
2023-02-03T05:21:59.488Z,100131.94
2023-02-03T05:24:26.212Z,100111.91
2023-02-03T05:26:52.891Z,100140.75
2023-02-03T05:29:19.619Z,100140.75
2023-02-03T05:31:46.375Z,100137.16
2023-02-03T05:34:13.071Z,100140.81
2023-02-03T05:36:39.738Z,100141.38
2023-02-03T05:39:06.472Z,100139.47
2023-02-03T05:41:51.705Z,100138.88
2023-02-03T05:44:23.769Z,100138.94
2023-02-03T05:46:52.640Z,100129.75
2023-02-03T05:49:23.384Z,100137.31
2023-02-03T05:51:51.523Z,100131.41
2023-02-03T05:54:18.371Z,100114.97
2023-02-03T05:56:45.130Z,100130.22
2023-02-03T05:59:12.033Z,100130.63
2023-02-03T06:01:39.010Z,100125.41
2023-02-03T06:04:06.150Z,100122.16
2023-02-03T06:06:34.068Z,100130.69
2023-02-03T06:09:09.841Z,100129.94
2023-02-03T06:11:36.678Z,100138.72
2023-02-03T06:14:04.710Z,100128.91
2023-02-03T06:16:31.478Z,100136.38
2023-02-03T06:19:02.176Z,100126.22
2023-02-03T06:21:29.115Z,100148.91
2023-02-03T06:23:56.784Z,100152.38
2023-02-03T06:26:24.106Z,100156.38
2023-02-03T06:28:50.942Z,100160.75
2023-02-03T06:31:17.814Z,100156.59
2023-02-03T06:33:44.616Z,100169.22
2023-02-03T06:36:11.444Z,100152.44
2023-02-03T06:38:38.180Z,100167.59
2023-02-03T06:41:04.931Z,100159.75
2023-02-03T06:43:31.661Z,100165.41
2023-02-03T06:45:58.418Z,100161.00
2023-02-03T06:48:25.179Z,100169.59
2023-02-03T06:50:51.837Z,100168.28
2023-02-03T06:53:18.569Z,100170.31
2023-02-03T06:55:45.304Z,100172.78
2023-02-03T06:58:12.010Z,100170.16
2023-02-03T07:00:38.688Z,100186.34
2023-02-03T07:03:05.447Z,100194.56
2023-02-03T07:05:32.197Z,100195.25
2023-02-03T07:07:59.421Z,100190.97
2023-02-03T07:10:26.301Z,100195.91
2023-02-03T07:12:53.229Z,100199.69
2023-02-03T07:15:19.972Z,100187.50
2023-02-03T07:17:54.677Z,100196.75
2023-02-03T07:20:23.645Z,100211.63
2023-02-03T07:22:54.526Z,100207.31
2023-02-03T07:25:22.013Z,100209.47
2023-02-03T07:27:48.989Z,100208.31
2023-02-03T07:30:16.299Z,100217.38
2023-02-03T07:32:47.669Z,100211.91
2023-02-03T07:35:14.474Z,100210.28
2023-02-03T07:37:42.096Z,100217.72
2023-02-03T07:40:10.230Z,100223.50
2023-02-03T07:42:41.378Z,100227.81
2023-02-03T07:45:08.793Z,100217.72
2023-02-03T07:47:35.466Z,100218.88
2023-02-03T07:50:02.688Z,100228.63
2023-02-03T07:52:29.657Z,100221.16
2023-02-03T07:54:56.333Z,100217.22
2023-02-03T07:57:23.029Z,100235.06
2023-02-03T08:02:44.689Z,100238.03
2023-02-03T08:05:12.132Z,100244.97
2023-02-03T08:07:39.545Z,100235.91
2023-02-03T08:10:07.639Z,100237.69
2023-02-03T08:12:34.306Z,100241.66
2023-02-03T08:15:01.187Z,100248.94
2023-02-03T08:17:28.054Z,100249.56
2023-02-03T08:19:54.683Z,100247.13
2023-02-03T08:22:21.284Z,100244.28
2023-02-03T08:24:48.437Z,100245.84
2023-02-03T08:27:17.861Z,100252.06
2023-02-03T08:29:45.952Z,100251.53
2023-02-03T08:32:14.880Z,100242.47
2023-02-03T08:34:41.618Z,100247.69
2023-02-03T08:37:08.550Z,100250.19
2023-02-03T08:39:35.342Z,100263.53
2023-02-03T08:42:04.005Z,100259.44
2023-02-03T08:44:31.867Z,100263.03
2023-02-03T08:46:59.681Z,100266.22
2023-02-03T08:49:28.618Z,100267.38
2023-02-03T08:51:56.594Z,100269.06
2023-02-03T08:54:24.338Z,100261.63
2023-02-03T08:56:51.451Z,100268.09
2023-02-03T08:59:18.305Z,100267.44
2023-02-03T09:01:45.969Z,100282.75
2023-02-03T09:04:13.158Z,100272.53
2023-02-03T09:06:39.961Z,100278.16
2023-02-03T09:09:06.689Z,100286.56
2023-02-03T09:11:33.382Z,100282.59
2023-02-03T09:14:00.153Z,100277.94
2023-02-03T09:16:27.905Z,100277.31
2023-02-03T09:18:54.569Z,100277.09
2023-02-03T09:21:33.345Z,100258.91
2023-02-03T09:24:05.658Z,100277.72
2023-02-03T09:26:32.369Z,100277.66
2023-02-03T09:28:59.096Z,100284.34
2023-02-03T09:31:26.011Z,100281.06
2023-02-03T09:33:52.699Z,100263.94
2023-02-03T09:36:19.392Z,100269.06
2023-02-03T09:38:46.182Z,100254.16
2023-02-03T09:41:34.210Z,100271.38
2023-02-03T09:44:13.034Z,100267.78
2023-02-03T09:46:50.985Z,100261.66
2023-02-03T09:49:25.715Z,100263.63
2023-02-03T09:52:04.091Z,100261.84
2023-02-03T09:54:39.646Z,100265.81
2023-02-03T09:57:25.133Z,100256.56
2023-02-03T09:59:53.651Z,100259.50
2023-02-03T10:02:47.440Z,100254.97
2023-02-03T10:05:49.861Z,100251.44
2023-02-03T10:08:31.953Z,100246.47
2023-02-03T10:11:10.875Z,100245.00
2023-02-03T10:14:12.862Z,100247.22
2023-02-03T10:16:49.001Z,100245.22
2023-02-03T10:19:22.463Z,100245.25
2023-02-03T10:21:55.972Z,100237.69
2023-02-03T10:24:32.481Z,100243.38
2023-02-03T10:26:59.340Z,100253.91
2023-02-03T10:29:39.111Z,100241.22
2023-02-03T10:32:10.961Z,100234.97
2023-02-03T10:34:38.671Z,100234.66
2023-02-03T10:37:11.389Z,100239.63
2023-02-03T10:39:51.705Z,100236.56
2023-02-03T10:42:18.926Z,100242.34
2023-02-03T10:44:54.534Z,100228.84
2023-02-03T10:47:24.496Z,100234.13
2023-02-03T10:49:53.817Z,100241.41
2023-02-03T10:52:31.434Z,100243.00
2023-02-03T10:55:01.460Z,100241.88
2023-02-03T10:57:29.528Z,100232.91
2023-02-03T11:00:22.672Z,100240.41
2023-02-03T11:02:59.020Z,100238.09
2023-02-03T11:05:26.492Z,100239.97
2023-02-03T11:07:54.562Z,100229.25
2023-02-03T11:10:31.132Z,100224.28
2023-02-03T11:13:16.338Z,100221.38
2023-02-03T11:15:53.088Z,100216.56
2023-02-03T11:18:40.689Z,100215.00
2023-02-03T11:21:18.584Z,100212.66
2023-02-03T11:23:55.110Z,100205.56
2023-02-03T11:26:27.677Z,100194.28
2023-02-03T11:28:58.489Z,100188.06
2023-02-03T11:31:28.386Z,100197.22
2023-02-03T11:33:58.943Z,100201.16
2023-02-03T11:36:27.764Z,100190.13
2023-02-03T11:39:10.771Z,100191.28
2023-02-03T11:41:39.832Z,100187.72
2023-02-03T11:44:20.423Z,100206.16
2023-02-03T11:47:11.905Z,100205.72
2023-02-03T11:49:57.641Z,100204.28
2023-02-03T11:52:43.993Z,100212.28
2023-02-03T11:55:33.134Z,100207.69
2023-02-03T11:58:08.148Z,100206.63
2023-02-03T12:01:07.601Z,100207.56
2023-02-03T12:03:58.706Z,100208.97
2023-02-03T12:06:49.815Z,100209.50
2023-02-03T12:09:37.692Z,100198.19
2023-02-03T12:12:25.311Z,100194.50
2023-02-03T12:15:21.949Z,100192.06
2023-02-03T12:18:04.318Z,100200.91
2023-02-03T12:20:52.779Z,100197.50
2023-02-03T12:23:45.543Z,100190.78
2023-02-03T12:26:23.211Z,100192.13
2023-02-03T12:29:09.710Z,100179.66
2023-02-03T12:32:05.651Z,100175.09
2023-02-03T12:34:38.382Z,100172.56
2023-02-03T12:37:33.224Z,100158.72
2023-02-03T12:40:05.088Z,100173.59
2023-02-03T12:42:45.779Z,100169.13
2023-02-03T12:45:18.365Z,100168.72
2023-02-03T12:47:54.564Z,100150.50
2023-02-03T12:50:33.108Z,100167.47
2023-02-03T12:53:07.220Z,100156.41
2023-02-03T12:55:41.552Z,100151.22
2023-02-03T12:58:15.448Z,100162.69
2023-02-03T13:00:50.411Z,100164.88
2023-02-03T13:03:17.081Z,100170.88
2023-02-03T13:05:53.035Z,100167.38
2023-02-03T13:08:33.105Z,100159.75
2023-02-03T13:11:07.131Z,100165.28
2023-02-03T13:13:39.941Z,100167.75
2023-02-03T13:16:09.287Z,100151.97
2023-02-03T13:18:41.661Z,100166.41
2023-02-03T13:21:12.435Z,100152.78
2023-02-03T13:23:48.446Z,100158.91
2023-02-03T13:26:33.801Z,100161.66
2023-02-03T13:29:19.264Z,100154.78
2023-02-03T13:32:23.525Z,100157.19
2023-02-03T13:34:58.057Z,100163.84
2023-02-03T13:37:59.297Z,100156.34
2023-02-03T13:40:25.943Z,100149.75
2023-02-03T13:43:00.764Z,100167.06
2023-02-03T13:45:32.374Z,100125.81
2023-02-03T13:48:38.082Z,100155.38
2023-02-03T13:51:18.809Z,100148.88
2023-02-03T13:53:47.482Z,100144.13
2023-02-03T13:56:21.788Z,100148.69
2023-02-03T13:59:00.467Z,100140.00
2023-02-03T14:01:33.954Z,100120.66
2023-02-03T14:04:02.261Z,100136.59
2023-02-03T14:06:40.832Z,100138.03
2023-02-03T14:09:23.979Z,100138.94
2023-02-03T14:12:21.174Z,100147.19
2023-02-03T14:14:50.858Z,100141.31
2023-02-03T14:17:35.838Z,100139.78
2023-02-03T14:20:23.679Z,100144.50
2023-02-03T14:22:53.095Z,100127.16
2023-02-03T14:25:21.724Z,100145.25
2023-02-03T14:27:58.993Z,100144.19
2023-02-03T14:30:25.812Z,100143.34
2023-02-03T14:33:05.562Z,100135.47
2023-02-03T14:35:37.712Z,100143.25
2023-02-03T14:38:10.841Z,100143.06
2023-02-03T14:41:12.810Z,100148.38
2023-02-03T14:44:01.091Z,100148.81
2023-02-03T14:46:58.302Z,100152.16
2023-02-03T14:49:42.933Z,100153.78
2023-02-03T14:52:12.504Z,100154.50
2023-02-03T14:54:45.249Z,100159.31
2023-02-03T14:57:49.223Z,100166.94
2023-02-03T15:00:23.106Z,100162.00
2023-02-03T15:03:10.048Z,100165.66
2023-02-03T15:05:55.243Z,100167.66
2023-02-03T15:08:42.672Z,100155.47
2023-02-03T15:11:43.757Z,100172.28
2023-02-03T15:14:32.626Z,100177.06
2023-02-03T15:17:02.069Z,100181.22
2023-02-03T15:19:33.895Z,100193.47
2023-02-03T15:22:01.789Z,100186.50
2023-02-03T15:24:36.119Z,100176.63
2023-02-03T15:27:02.872Z,100176.63
2023-02-03T15:29:34.438Z,100169.34
2023-02-03T15:32:09.840Z,100170.13
2023-02-03T15:34:42.903Z,100165.44
2023-02-03T15:37:19.944Z,100172.91
2023-02-03T15:39:58.792Z,100177.78
2023-02-03T15:42:28.977Z,100184.75
2023-02-03T15:45:03.447Z,100168.72
2023-02-03T15:47:37.827Z,100176.97
2023-02-03T15:50:34.336Z,100173.81
2023-02-03T15:53:08.045Z,100172.94
2023-02-03T15:55:46.514Z,100168.50
2023-02-03T15:58:20.574Z,100165.00
2023-02-03T16:01:00.483Z,100159.38
2023-02-03T16:03:32.795Z,100150.91
2023-02-03T16:06:16.562Z,100158.00
2023-02-03T16:08:49.045Z,100147.78
2023-02-03T16:11:39.052Z,100137.69
2023-02-03T16:14:31.014Z,100157.47
2023-02-03T16:17:05.073Z,100130.09
2023-02-03T16:19:38.479Z,100145.66
2023-02-03T16:22:25.385Z,100130.63
2023-02-03T16:24:52.137Z,100138.06
2023-02-03T16:27:27.963Z,100140.88
2023-02-03T16:30:34.112Z,100105.03
2023-02-03T16:33:39.413Z,100134.94
2023-02-03T16:36:32.755Z,100142.69
2023-02-03T16:39:21.714Z,100137.25
2023-02-03T16:42:07.239Z,100138.41
2023-02-03T16:44:52.201Z,100142.06
2023-02-03T16:47:44.575Z,100145.16
2023-02-03T16:50:38.737Z,100150.59
2023-02-03T16:53:11.346Z,100144.72
2023-02-03T16:55:38.041Z,100144.75
2023-02-03T16:58:04.741Z,100140.13
2023-02-03T17:00:31.685Z,100142.63
2023-02-03T17:02:58.755Z,100132.97
2023-02-03T17:05:25.540Z,100139.72
2023-02-03T17:07:52.266Z,100140.38
2023-02-03T17:10:19.106Z,100134.09
2023-02-03T17:12:45.767Z,100089.75
2023-02-03T17:15:12.659Z,100131.47
2023-02-03T17:17:39.389Z,100117.03
2023-02-03T17:20:06.464Z,100104.91
2023-02-03T17:22:34.049Z,100080.00
2023-02-03T17:25:00.726Z,100118.34
2023-02-03T17:27:27.383Z,100102.84
2023-02-03T17:29:54.245Z,100105.81
2023-02-03T17:32:21.320Z,100114.69
2023-02-03T17:34:48.045Z,100104.94
2023-02-03T17:37:14.804Z,100114.03
2023-02-03T17:53:22.406Z,100092.09
2023-02-03T17:55:49.578Z,100094.28
2023-02-03T17:58:16.244Z,100085.16
2023-02-03T18:00:42.985Z,100075.63
2023-02-03T18:03:09.655Z,100066.84
2023-02-03T18:05:37.386Z,100080.66
2023-02-03T18:08:12.412Z,100080.78
2023-02-03T18:10:43.512Z,100077.56
2023-02-03T18:13:10.510Z,100080.25
2023-02-03T18:15:38.672Z,100079.56
2023-02-03T18:18:06.016Z,100069.50
2023-02-03T18:20:32.787Z,100078.19
2023-02-03T18:22:59.422Z,100075.91
2023-02-03T18:25:26.130Z,100074.88
2023-02-03T18:27:52.883Z,100076.25
2023-02-03T18:30:21.892Z,100067.44
2023-02-03T18:32:55.290Z,100065.47
2023-02-03T18:35:21.950Z,100057.72
2023-02-03T18:37:48.691Z,100036.34
2023-02-03T18:40:15.734Z,100045.22
2023-02-03T18:42:42.499Z,100049.91
2023-02-03T18:45:10.729Z,100043.00
2023-02-03T18:47:37.858Z,100045.66
2023-02-03T18:50:05.229Z,100049.19
2023-02-03T18:52:31.851Z,100042.97
2023-02-03T18:54:58.847Z,100027.88
2023-02-03T18:57:26.230Z,100039.47
2023-02-03T18:59:52.966Z,100035.50
2023-02-03T19:02:19.676Z,100029.47
2023-02-03T19:04:46.609Z,100022.50
2023-02-03T19:07:13.246Z,100023.88
2023-02-03T19:09:40.937Z,100017.09
2023-02-03T19:12:07.955Z,100019.94
2023-02-03T19:14:35.469Z,100029.41
2023-02-03T19:17:04.091Z,100029.13
2023-02-03T19:19:30.951Z,100020.69
2023-02-03T19:21:58.654Z,100007.97
2023-02-03T19:24:26.891Z,100013.75
2023-02-03T19:26:54.384Z,100011.88
2023-02-03T19:29:21.083Z,100009.81
2023-02-03T19:31:47.892Z,100005.28
2023-02-03T19:34:16.627Z,100008.75
2023-02-03T19:36:43.400Z,100015.03
2023-02-03T19:39:10.907Z,100014.13
2023-02-03T19:41:37.590Z,100014.38
2023-02-03T19:44:05.815Z,100009.50
2023-02-03T19:46:37.709Z,100014.44
2023-02-03T19:49:13.527Z,100002.75
2023-02-03T19:51:41.345Z,100004.44
2023-02-03T19:54:12.291Z,100002.72
2023-02-03T19:56:39.929Z,99995.75
2023-02-03T19:59:06.868Z,99989.66
2023-02-03T20:01:33.990Z,99989.13
2023-02-03T20:04:01.405Z,99979.66
2023-02-03T20:06:28.921Z,99970.28
2023-02-03T20:09:06.040Z,99994.13
2023-02-03T20:11:32.921Z,99983.78
2023-02-03T20:13:59.627Z,99976.50
2023-02-03T20:16:26.404Z,99985.97
2023-02-03T20:18:53.263Z,99987.88
2023-02-03T20:21:19.986Z,99972.13
2023-02-03T20:23:46.679Z,99979.00
2023-02-03T20:26:14.396Z,99947.44
2023-02-03T20:28:41.282Z,99973.84
2023-02-03T20:31:08.249Z,99976.06
2023-02-03T20:33:35.445Z,99970.31
2023-02-03T20:36:03.347Z,99968.91
2023-02-03T20:38:30.459Z,99962.75
2023-02-03T20:43:52.001Z,99957.97
2023-02-03T20:46:20.996Z,99950.84
2023-02-03T20:48:48.539Z,99956.03
2023-02-03T20:51:18.749Z,99954.56
2023-02-03T20:53:45.512Z,99951.06
2023-02-03T20:56:15.766Z,99948.00
2023-02-03T20:58:43.619Z,99923.91
2023-02-03T21:01:22.082Z,99953.31
2023-02-03T21:04:10.200Z,99940.88
2023-02-03T21:06:38.138Z,99939.25
2023-02-03T21:09:16.410Z,99944.16
2023-02-03T21:11:43.778Z,99922.59
2023-02-03T21:14:22.869Z,99930.69
2023-02-03T21:16:50.650Z,99920.44
2023-02-03T21:19:28.307Z,99923.56
2023-02-03T21:21:55.828Z,99914.88
2023-02-03T21:24:32.735Z,99909.75
2023-02-03T21:27:01.177Z,99913.72
2023-02-03T21:29:36.946Z,99903.28
2023-02-03T21:32:11.532Z,99908.25
2023-02-03T21:34:42.128Z,99910.81
2023-02-03T21:37:40.419Z,99895.09
2023-02-03T21:40:34.141Z,99900.44
2023-02-03T21:43:04.974Z,99903.94
2023-02-03T21:45:42.221Z,99871.81
2023-02-03T21:48:27.101Z,99894.84
2023-02-03T21:50:56.032Z,99881.06
2023-02-03T21:53:28.894Z,99890.00
2023-02-03T21:55:55.860Z,99886.78
2023-02-03T21:58:23.677Z,99886.09
2023-02-03T22:00:55.875Z,99880.19
2023-02-03T22:03:30.073Z,99878.38
2023-02-03T22:06:09.002Z,99871.91
2023-02-03T22:08:57.200Z,99858.81
2023-02-03T22:11:26.967Z,99865.16
2023-02-03T22:13:53.930Z,99858.28
2023-02-03T22:16:21.049Z,99838.97
2023-02-03T22:18:48.956Z,99838.94
2023-02-03T22:21:16.481Z,99824.25
2023-02-03T22:23:44.000Z,99828.63
2023-02-03T22:26:12.232Z,99830.31
2023-02-03T22:28:39.668Z,99824.25
2023-02-03T22:31:07.655Z,99821.06
2023-02-03T22:33:35.928Z,99834.72
2023-02-03T22:36:03.475Z,99826.88
2023-02-03T22:38:30.809Z,99835.34
2023-02-03T22:40:57.700Z,99788.09
2023-02-03T22:43:24.815Z,99824.28
2023-02-03T22:45:52.218Z,99816.59
2023-02-03T22:48:19.115Z,99823.56
2023-02-03T22:50:45.921Z,99806.88
2023-02-03T22:53:12.827Z,99800.56
2023-02-03T22:55:39.645Z,99792.00
2023-02-03T22:58:07.111Z,99799.22
2023-02-03T23:00:34.759Z,99786.56
2023-02-03T23:03:01.564Z,99766.81
2023-02-03T23:05:28.343Z,99760.13
2023-02-03T23:07:55.197Z,99777.44
2023-02-03T23:10:25.275Z,99741.41
2023-02-03T23:12:52.732Z,99764.16
2023-02-03T23:15:19.537Z,99758.00
2023-02-03T23:17:46.488Z,99757.59
2023-02-03T23:20:15.327Z,99757.38
2023-02-03T23:22:42.830Z,99741.34
2023-02-03T23:25:10.570Z,99739.28
2023-02-03T23:27:37.701Z,99739.75
2023-02-03T23:30:06.069Z,99737.13
2023-02-03T23:32:33.942Z,99720.03
2023-02-03T23:35:22.351Z,99725.41
2023-02-03T23:37:49.047Z,99742.13
2023-02-03T23:40:16.018Z,99726.31
2023-02-03T23:42:42.843Z,99704.31
2023-02-03T23:45:12.168Z,99711.69
2023-02-03T23:47:43.594Z,99727.91
2023-02-03T23:50:13.368Z,99722.81
2023-02-03T23:52:40.122Z,99721.59
2023-02-03T23:55:09.805Z,99717.16
2023-02-03T23:57:37.251Z,99704.44
